sensor_id;sensor_type;location;lat;lon;timestamp;pressure;altitude;pressure_sealevel;temperature;humidity
61119;BME280;51448;51.660;5.824;2023-10-19T00:00:41;99221.97;;;11.10;100.00
61119;BME280;51448;51.660;5.824;2023-10-19T00:03:13;99215.69;;;11.13;100.00
61119;BME280;51448;51.660;5.824;2023-10-19T00:05:41;99217.41;;;11.14;100.00
61119;BME280;51448;51.660;5.824;2023-10-19T00:08:09;99204.13;;;11.15;100.00
61119;BME280;51448;51.660;5.824;2023-10-19T00:10:49;99210.16;;;11.17;100.00
61119;BME280;51448;51.660;5.824;2023-10-19T00:13:39;99211.94;;;11.17;100.00
61119;BME280;51448;51.660;5.824;2023-10-19T00:16:08;99214.50;;;11.18;100.00
61119;BME280;51448;51.660;5.824;2023-10-19T00:18:44;99211.69;;;11.21;100.00
61119;BME280;51448;51.660;5.824;2023-10-19T00:21:12;99211.53;;;11.24;100.00
61119;BME280;51448;51.660;5.824;2023-10-19T00:23:47;99210.56;;;11.25;100.00
61119;BME280;51448;51.660;5.824;2023-10-19T00:26:19;99213.97;;;11.27;100.00
61119;BME280;51448;51.660;5.824;2023-10-19T00:28:56;99196.31;;;11.30;100.00
61119;BME280;51448;51.660;5.824;2023-10-19T00:31:26;99211.09;;;11.32;100.00
61119;BME280;51448;51.660;5.824;2023-10-19T00:33:56;99212.78;;;11.33;100.00
61119;BME280;51448;51.660;5.824;2023-10-19T00:36:24;99210.06;;;11.35;100.00
61119;BME280;51448;51.660;5.824;2023-10-19T00:38:53;99217.88;;;11.36;100.00
61119;BME280;51448;51.660;5.824;2023-10-19T00:41:24;99232.72;;;11.37;100.00
61119;BME280;51448;51.660;5.824;2023-10-19T00:43:59;99228.22;;;11.39;100.00
61119;BME280;51448;51.660;5.824;2023-10-19T00:46:31;99227.19;;;11.42;100.00
61119;BME280;51448;51.660;5.824;2023-10-19T00:49:21;99221.00;;;11.43;100.00
61119;BME280;51448;51.660;5.824;2023-10-19T00:51:55;99214.63;;;11.47;100.00
61119;BME280;51448;51.660;5.824;2023-10-19T00:54:40;99216.22;;;11.50;100.00
61119;BME280;51448;51.660;5.824;2023-10-19T00:57:18;99201.19;;;11.52;100.00
61119;BME280;51448;51.660;5.824;2023-10-19T01:00:02;99200.16;;;11.54;100.00
61119;BME280;51448;51.660;5.824;2023-10-19T01:02:40;99192.09;;;11.57;100.00
61119;BME280;51448;51.660;5.824;2023-10-19T01:05:12;99192.78;;;11.61;100.00
61119;BME280;51448;51.660;5.824;2023-10-19T01:07:43;99186.47;;;11.63;100.00
61119;BME280;51448;51.660;5.824;2023-10-19T01:10:12;99194.19;;;11.66;100.00
61119;BME280;51448;51.660;5.824;2023-10-19T01:12:47;99196.66;;;11.70;100.00
61119;BME280;51448;51.660;5.824;2023-10-19T01:15:19;99207.94;;;11.72;100.00
61119;BME280;51448;51.660;5.824;2023-10-19T01:17:56;99204.34;;;11.73;100.00
61119;BME280;51448;51.660;5.824;2023-10-19T01:20:30;99198.84;;;11.77;100.00
61119;BME280;51448;51.660;5.824;2023-10-19T01:23:01;99191.56;;;11.81;100.00
61119;BME280;51448;51.660;5.824;2023-10-19T01:25:48;99188.69;;;11.85;100.00
61119;BME280;51448;51.660;5.824;2023-10-19T01:28:32;99193.84;;;11.87;100.00
61119;BME280;51448;51.660;5.824;2023-10-19T01:31:20;99190.22;;;11.90;100.00
61119;BME280;51448;51.660;5.824;2023-10-19T01:34:09;99195.31;;;11.93;100.00
61119;BME280;51448;51.660;5.824;2023-10-19T01:36:37;99191.63;;;11.95;100.00
61119;BME280;51448;51.660;5.824;2023-10-19T01:39:10;99187.88;;;11.99;100.00
61119;BME280;51448;51.660;5.824;2023-10-19T01:41:38;99189.50;;;12.02;100.00
61119;BME280;51448;51.660;5.824;2023-10-19T01:44:08;99185.75;;;12.06;100.00
61119;BME280;51448;51.660;5.824;2023-10-19T01:46:41;99182.06;;;12.08;100.00
61119;BME280;51448;51.660;5.824;2023-10-19T01:49:16;99181.88;;;12.12;100.00
61119;BME280;51448;51.660;5.824;2023-10-19T01:51:57;99182.63;;;12.14;100.00
61119;BME280;51448;51.660;5.824;2023-10-19T01:54:25;99171.91;;;12.17;100.00
61119;BME280;51448;51.660;5.824;2023-10-19T01:56:54;99171.81;;;12.18;100.00
61119;BME280;51448;51.660;5.824;2023-10-19T01:59:29;99176.03;;;12.21;100.00
61119;BME280;51448;51.660;5.824;2023-10-19T02:01:58;99171.53;;;12.23;100.00
61119;BME280;51448;51.660;5.824;2023-10-19T02:04:25;99171.31;;;12.26;100.00
61119;BME280;51448;51.660;5.824;2023-10-19T02:06:53;99178.09;;;12.30;100.00
61119;BME280;51448;51.660;5.824;2023-10-19T02:09:24;99164.00;;;12.31;100.00
61119;BME280;51448;51.660;5.824;2023-10-19T02:11:57;99175.22;;;12.35;100.00
61119;BME280;51448;51.660;5.824;2023-10-19T02:14:26;99168.06;;;12.37;100.00
61119;BME280;51448;51.660;5.824;2023-10-19T02:16:59;99168.81;;;12.39;100.00
61119;BME280;51448;51.660;5.824;2023-10-19T02:19:29;99170.41;;;12.41;100.00
61119;BME280;51448;51.660;5.824;2023-10-19T02:21:59;99167.56;;;12.44;100.00
61119;BME280;51448;51.660;5.824;2023-10-19T02:24:31;99167.47;;;12.46;100.00
61119;BME280;51448;51.660;5.824;2023-10-19T02:27:00;99170.84;;;12.48;100.00
61119;BME280;51448;51.660;5.824;2023-10-19T02:29:28;99174.25;;;12.50;100.00
61119;BME280;51448;51.660;5.824;2023-10-19T02:31:56;99161.81;;;12.52;100.00
61119;BME280;51448;51.660;5.824;2023-10-19T02:34:24;99159.91;;;12.54;100.00
61119;BME280;51448;51.660;5.824;2023-10-19T02:36:52;99164.16;;;12.57;100.00
61119;BME280;51448;51.660;5.824;2023-10-19T02:39:20;99156.72;;;12.63;100.00
61119;BME280;51448;51.660;5.824;2023-10-19T02:41:52;99161.69;;;12.68;100.00
61119;BME280;51448;51.660;5.824;2023-10-19T02:44:22;99157.91;;;12.72;100.00
61119;BME280;51448;51.660;5.824;2023-10-19T02:46:52;99155.81;;;12.77;100.00
61119;BME280;51448;51.660;5.824;2023-10-19T02:49:27;99162.59;;;12.81;100.00
61119;BME280;51448;51.660;5.824;2023-10-19T02:51:57;99169.38;;;12.85;100.00
61119;BME280;51448;51.660;5.824;2023-10-19T02:54:31;99162.94;;;12.89;100.00
61119;BME280;51448;51.660;5.824;2023-10-19T02:57:03;99158.31;;;12.93;100.00
61119;BME280;51448;51.660;5.824;2023-10-19T02:59:35;99152.88;;;12.96;100.00
61119;BME280;51448;51.660;5.824;2023-10-19T03:02:03;99153.50;;;13.00;100.00
61119;BME280;51448;51.660;5.824;2023-10-19T03:04:41;99154.25;;;13.02;100.00
61119;BME280;51448;51.660;5.824;2023-10-19T03:07:10;99155.13;;;13.02;100.00
61119;BME280;51448;51.660;5.824;2023-10-19T03:09:41;99150.66;;;13.03;100.00
61119;BME280;51448;51.660;5.824;2023-10-19T03:12:29;99145.38;;;13.03;100.00
61119;BME280;51448;51.660;5.824;2023-10-19T03:14:58;99140.94;;;13.03;100.00
61119;BME280;51448;51.660;5.824;2023-10-19T03:17:27;99141.78;;;13.04;100.00
61119;BME280;51448;51.660;5.824;2023-10-19T03:19:57;99139.06;;;13.05;100.00
61119;BME280;51448;51.660;5.824;2023-10-19T03:22:25;99146.88;;;13.07;100.00
61119;BME280;51448;51.660;5.824;2023-10-19T03:24:54;99144.16;;;13.08;100.00
61119;BME280;51448;51.660;5.824;2023-10-19T03:27:40;99137.91;;;13.09;100.00
61119;BME280;51448;51.660;5.824;2023-10-19T03:30:11;99127.25;;;13.11;100.00
61119;BME280;51448;51.660;5.824;2023-10-19T03:32:43;99142.34;;;13.09;100.00
61119;BME280;51448;51.660;5.824;2023-10-19T03:35:11;99134.34;;;13.11;100.00
61119;BME280;51448;51.660;5.824;2023-10-19T03:37:42;99127.91;;;13.15;100.00
61119;BME280;51448;51.660;5.824;2023-10-19T03:40:10;99122.41;;;13.18;100.00
61119;BME280;51448;51.660;5.824;2023-10-19T03:42:42;99124.00;;;13.20;100.00
61119;BME280;51448;51.660;5.824;2023-10-19T03:45:14;99131.00;;;13.21;100.00
61119;BME280;51448;51.660;5.824;2023-10-19T03:47:41;99115.91;;;13.23;100.00
61119;BME280;51448;51.660;5.824;2023-10-19T03:50:11;99121.81;;;13.27;100.00
61119;BME280;51448;51.660;5.824;2023-10-19T03:52:47;99110.25;;;13.30;100.00
61119;BME280;51448;51.660;5.824;2023-10-19T03:55:15;99108.34;;;13.32;100.00
61119;BME280;51448;51.660;5.824;2023-10-19T03:57:45;99106.44;;;13.34;100.00
61119;BME280;51448;51.660;5.824;2023-10-19T04:00:22;99109.81;;;13.36;100.00
61119;BME280;51448;51.660;5.824;2023-10-19T04:02:55;99105.38;;;13.36;100.00
61119;BME280;51448;51.660;5.824;2023-10-19T04:05:23;99097.38;;;13.38;100.00
61119;BME280;51448;51.660;5.824;2023-10-19T04:07:52;99103.38;;;13.40;100.00
61119;BME280;51448;51.660;5.824;2023-10-19T04:10:23;99104.88;;;13.44;100.00
61119;BME280;51448;51.660;5.824;2023-10-19T04:12:57;99099.50;;;13.45;100.00
61119;BME280;51448;51.660;5.824;2023-10-19T04:15:28;99099.28;;;13.48;100.00
61119;BME280;51448;51.660;5.824;2023-10-19T04:17:56;99099.19;;;13.50;100.00
61119;BME280;51448;51.660;5.824;2023-10-19T04:20:26;99100.75;;;13.53;100.00
61119;BME280;51448;51.660;5.824;2023-10-19T04:22:57;99098.88;;;13.55;100.00
61119;BME280;51448;51.660;5.824;2023-10-19T04:25:26;99099.69;;;13.55;100.00
61119;BME280;51448;51.660;5.824;2023-10-19T04:27:54;99095.16;;;13.57;100.00
61119;BME280;51448;51.660;5.824;2023-10-19T04:30:24;99097.59;;;13.60;100.00
61119;BME280;51448;51.660;5.824;2023-10-19T04:32:52;99098.34;;;13.62;100.00
61119;BME280;51448;51.660;5.824;2023-10-19T04:35:20;99098.25;;;13.64;100.00
61119;BME280;51448;51.660;5.824;2023-10-19T04:37:54;99099.84;;;13.66;100.00
61119;BME280;51448;51.660;5.824;2023-10-19T04:40:22;99099.72;;;13.68;100.00
61119;BME280;51448;51.660;5.824;2023-10-19T04:42:52;99097.94;;;13.68;100.00
61119;BME280;51448;51.660;5.824;2023-10-19T04:45:20;99098.66;;;13.71;100.00
61119;BME280;51448;51.660;5.824;2023-10-19T04:47:52;99102.97;;;13.72;100.00
61119;BME280;51448;51.660;5.824;2023-10-19T04:50:21;99098.66;;;13.71;100.00
61119;BME280;51448;51.660;5.824;2023-10-19T04:52:48;99101.41;;;13.69;100.00
61119;BME280;51448;51.660;5.824;2023-10-19T04:55:16;99099.72;;;13.68;100.00
61119;BME280;51448;51.660;5.824;2023-10-19T04:57:44;99105.84;;;13.68;100.00
61119;BME280;51448;51.660;5.824;2023-10-19T05:00:13;99098.13;;;13.65;100.00
61119;BME280;51448;51.660;5.824;2023-10-19T05:02:44;99107.00;;;13.64;100.00
61119;BME280;51448;51.660;5.824;2023-10-19T05:05:11;99108.69;;;13.65;100.00
61119;BME280;51448;51.660;5.824;2023-10-19T05:07:41;99111.31;;;13.65;100.00
61119;BME280;51448;51.660;5.824;2023-10-19T05:10:10;99105.00;;;13.68;100.00
61119;BME280;51448;51.660;5.824;2023-10-19T05:12:38;99113.78;;;13.68;100.00
61119;BME280;51448;51.660;5.824;2023-10-19T05:15:06;99110.16;;;13.69;100.00
61119;BME280;51448;51.660;5.824;2023-10-19T05:17:33;99122.44;;;13.71;100.00
61119;BME280;51448;51.660;5.824;2023-10-19T05:20:01;99111.78;;;13.72;100.00
61119;BME280;51448;51.660;5.824;2023-10-19T05:22:32;99112.63;;;13.73;100.00
61119;BME280;51448;51.660;5.824;2023-10-19T05:25:00;99109.00;;;13.74;100.00
61119;BME280;51448;51.660;5.824;2023-10-19T05:27:28;99112.41;;;13.76;100.00
61119;BME280;51448;51.660;5.824;2023-10-19T05:29:56;99114.09;;;13.77;100.00
61119;BME280;51448;51.660;5.824;2023-10-19T05:32:23;99107.84;;;13.78;100.00
61119;BME280;51448;51.660;5.824;2023-10-19T05:34:52;99118.31;;;13.79;100.00
61119;BME280;51448;51.660;5.824;2023-10-19T05:37:19;99116.50;;;13.80;100.00
61119;BME280;51448;51.660;5.824;2023-10-19T05:39:47;99110.28;;;13.81;100.00
61119;BME280;51448;51.660;5.824;2023-10-19T05:42:14;99118.97;;;13.83;100.00
61119;BME280;51448;51.660;5.824;2023-10-19T05:44:42;99122.34;;;13.85;100.00
61119;BME280;51448;51.660;5.824;2023-10-19T05:47:09;99121.38;;;13.86;100.00
61119;BME280;51448;51.660;5.824;2023-10-19T05:49:37;99122.13;;;13.88;100.00
61119;BME280;51448;51.660;5.824;2023-10-19T05:52:04;99123.00;;;13.88;100.00
61119;BME280;51448;51.660;5.824;2023-10-19T05:54:32;99123.81;;;13.89;100.00
61119;BME280;51448;51.660;5.824;2023-10-19T05:56:59;99123.81;;;13.89;100.00
61119;BME280;51448;51.660;5.824;2023-10-19T05:59:27;99129.94;;;13.89;100.00
61119;BME280;51448;51.660;5.824;2023-10-19T06:01:56;99127.22;;;13.91;100.00
61119;BME280;51448;51.660;5.824;2023-10-19T06:04:24;99132.50;;;13.91;100.00
61119;BME280;51448;51.660;5.824;2023-10-19T06:06:52;99136.81;;;13.92;100.00
61119;BME280;51448;51.660;5.824;2023-10-19T06:09:20;99131.44;;;13.94;100.00
61119;BME280;51448;51.660;5.824;2023-10-19T06:11:57;99139.25;;;13.95;100.00
61119;BME280;51448;51.660;5.824;2023-10-19T06:14:25;99136.63;;;13.95;100.00
61119;BME280;51448;51.660;5.824;2023-10-19T06:16:52;99139.25;;;13.95;100.00
61119;BME280;51448;51.660;5.824;2023-10-19T06:19:20;99140.00;;;13.97;100.00
61119;BME280;51448;51.660;5.824;2023-10-19T06:21:50;99139.91;;;13.99;100.00
61119;BME280;51448;51.660;5.824;2023-10-19T06:24:17;99141.81;;;13.97;100.00
61119;BME280;51448;51.660;5.824;2023-10-19T06:26:46;99138.19;;;13.98;100.00
61119;BME280;51448;51.660;5.824;2023-10-19T06:29:13;99147.94;;;13.97;100.00
61119;BME280;51448;51.660;5.824;2023-10-19T06:31:41;99146.97;;;13.98;100.00
61119;BME280;51448;51.660;5.824;2023-10-19T06:34:10;99147.69;;;14.00;100.00
61119;BME280;51448;51.660;5.824;2023-10-19T06:36:38;99141.56;;;14.00;100.00
61119;BME280;51448;51.660;5.824;2023-10-19T06:39:05;99153.00;;;14.00;100.00
61119;BME280;51448;51.660;5.824;2023-10-19T06:41:33;99153.00;;;14.00;100.00
61119;BME280;51448;51.660;5.824;2023-10-19T06:44:01;99159.00;;;14.02;100.00
61119;BME280;51448;51.660;5.824;2023-10-19T06:46:29;99156.38;;;14.02;100.00
61119;BME280;51448;51.660;5.824;2023-10-19T06:48:58;99160.63;;;14.05;100.00
61119;BME280;51448;51.660;5.824;2023-10-19T06:51:28;99154.28;;;14.07;100.00
61119;BME280;51448;51.660;5.824;2023-10-19T06:53:56;99163.03;;;14.08;100.00
61119;BME280;51448;51.660;5.824;2023-10-19T06:56:25;99163.78;;;14.10;100.00
61119;BME280;51448;51.660;5.824;2023-10-19T06:58:53;99161.03;;;14.12;100.00
61119;BME280;51448;51.660;5.824;2023-10-19T07:01:21;99166.22;;;14.13;100.00
61119;BME280;51448;51.660;5.824;2023-10-19T07:03:53;99168.75;;;14.15;100.00
61119;BME280;51448;51.660;5.824;2023-10-19T07:06:21;99166.84;;;14.17;100.00
61119;BME280;51448;51.660;5.824;2023-10-19T07:08:48;99164.94;;;14.19;100.00
61119;BME280;51448;51.660;5.824;2023-10-19T07:11:16;99168.31;;;14.21;100.00
61119;BME280;51448;51.660;5.824;2023-10-19T07:13:43;99163.75;;;14.23;100.00
61119;BME280;51448;51.660;5.824;2023-10-19T07:16:11;99174.88;;;14.28;100.00
61119;BME280;51448;51.660;5.824;2023-10-19T07:18:40;99168.53;;;14.31;100.00
61119;BME280;51448;51.660;5.824;2023-10-19T07:21:07;99172.66;;;14.35;100.00
61119;BME280;51448;51.660;5.824;2023-10-19T07:23:37;99179.31;;;14.40;100.00
61119;BME280;51448;51.660;5.824;2023-10-19T07:26:05;99185.97;;;14.46;100.00
61119;BME280;51448;51.660;5.824;2023-10-19T07:28:33;99192.63;;;14.52;100.00
61119;BME280;51448;51.660;5.824;2023-10-19T07:31:05;99187.91;;;14.57;100.00
61119;BME280;51448;51.660;5.824;2023-10-19T07:33:39;99190.09;;;14.63;100.00
61119;BME280;51448;51.660;5.824;2023-10-19T07:36:14;99186.38;;;14.65;100.00
61119;BME280;51448;51.660;5.824;2023-10-19T07:38:41;99185.09;;;14.71;100.00
61119;BME280;51448;51.660;5.824;2023-10-19T07:41:09;99191.88;;;14.75;100.00
61119;BME280;51448;51.660;5.824;2023-10-19T07:43:37;99188.16;;;14.78;100.00
61119;BME280;51448;51.660;5.824;2023-10-19T07:46:04;99186.97;;;14.82;100.00
61119;BME280;51448;51.660;5.824;2023-10-19T07:48:32;99184.13;;;14.85;100.00
61119;BME280;51448;51.660;5.824;2023-10-19T07:50:59;99183.78;;;14.89;100.00
61119;BME280;51448;51.660;5.824;2023-10-19T07:53:27;99187.91;;;14.94;100.00
61119;BME280;51448;51.660;5.824;2023-10-19T07:55:55;99190.44;;;14.95;100.00
61119;BME280;51448;51.660;5.824;2023-10-19T07:58:24;99185.88;;;14.97;100.00
61119;BME280;51448;51.660;5.824;2023-10-19T08:00:51;99183.09;;;14.99;100.00
61119;BME280;51448;51.660;5.824;2023-10-19T08:03:20;99176.78;;;15.01;100.00
61119;BME280;51448;51.660;5.824;2023-10-19T08:05:49;99175.69;;;15.04;100.00
61119;BME280;51448;51.660;5.824;2023-10-19T08:08:16;99175.44;;;15.07;100.00
61119;BME280;51448;51.660;5.824;2023-10-19T08:10:44;99177.06;;;15.09;100.00
61119;BME280;51448;51.660;5.824;2023-10-19T08:13:12;99176.81;;;15.13;100.00
61119;BME280;51448;51.660;5.824;2023-10-19T08:15:40;99176.72;;;15.14;100.00
61119;BME280;51448;51.660;5.824;2023-10-19T08:18:07;99174.56;;;15.19;100.00
61119;BME280;51448;51.660;5.824;2023-10-19T08:20:35;99162.66;;;15.25;100.00
61119;BME280;51448;51.660;5.824;2023-10-19T08:23:04;99160.28;;;15.33;100.00
61119;BME280;51448;51.660;5.824;2023-10-19T08:25:33;99151.91;;;15.39;100.00
61119;BME280;51448;51.660;5.824;2023-10-19T08:28:21;99156.00;;;15.43;100.00
61119;BME280;51448;51.660;5.824;2023-10-19T08:30:49;99152.06;;;15.49;100.00
61119;BME280;51448;51.660;5.824;2023-10-19T08:33:29;99156.91;;;15.55;100.00
61119;BME280;51448;51.660;5.824;2023-10-19T08:35:57;99158.25;;;15.61;100.00
61119;BME280;51448;51.660;5.824;2023-10-19T08:38:27;99164.13;;;15.64;100.00
61119;BME280;51448;51.660;5.824;2023-10-19T08:40:56;99159.44;;;15.68;100.00
61119;BME280;51448;51.660;5.824;2023-10-19T08:43:24;99162.00;;;15.69;100.00
61119;BME280;51448;51.660;5.824;2023-10-19T08:45:53;99157.53;;;15.70;100.00
61119;BME280;51448;51.660;5.824;2023-10-19T08:48:22;99162.84;;;15.70;100.00
61119;BME280;51448;51.660;5.824;2023-10-19T08:50:51;99147.03;;;15.68;100.00
61119;BME280;51448;51.660;5.824;2023-10-19T08:53:21;99141.75;;;15.68;100.00
61119;BME280;51448;51.660;5.824;2023-10-19T08:55:49;99140.06;;;15.67;100.00
61119;BME280;51448;51.660;5.824;2023-10-19T08:58:19;99150.41;;;15.70;100.00
61119;BME280;51448;51.660;5.824;2023-10-19T09:00:50;99154.56;;;15.75;100.00
61119;BME280;51448;51.660;5.824;2023-10-19T09:03:24;99147.84;;;15.82;100.00
61119;BME280;51448;51.660;5.824;2023-10-19T09:05:54;99151.69;;;15.89;100.00
61119;BME280;51448;51.660;5.824;2023-10-19T09:08:24;99137.84;;;15.97;100.00
61119;BME280;51448;51.660;5.824;2023-10-19T09:10:52;99145.13;;;16.06;100.00
61119;BME280;51448;51.660;5.824;2023-10-19T09:13:24;99142.94;;;16.22;100.00
61119;BME280;51448;51.660;5.824;2023-10-19T09:15:52;99145.38;;;16.37;100.00
61119;BME280;51448;51.660;5.824;2023-10-19T09:18:24;99147.88;;;16.49;100.00
61119;BME280;51448;51.660;5.824;2023-10-19T09:20:56;99143.25;;;16.63;100.00
61119;BME280;51448;51.660;5.824;2023-10-19T09:23:35;99139.41;;;16.78;100.00
61119;BME280;51448;51.660;5.824;2023-10-19T09:26:04;99138.66;;;16.87;100.00
61119;BME280;51448;51.660;5.824;2023-10-19T09:28:37;99144.09;;;16.97;100.00
61119;BME280;51448;51.660;5.824;2023-10-19T09:31:06;99134.78;;;17.03;100.00
61119;BME280;51448;51.660;5.824;2023-10-19T09:33:40;99131.63;;;17.09;100.00
61119;BME280;51448;51.660;5.824;2023-10-19T09:36:09;99132.06;;;17.14;100.00
61119;BME280;51448;51.660;5.824;2023-10-19T09:38:48;99119.25;;;17.19;100.00
61119;BME280;51448;51.660;5.824;2023-10-19T09:41:21;99122.50;;;17.23;100.00
61119;BME280;51448;51.660;5.824;2023-10-19T09:43:50;99129.13;;;17.28;100.00
61119;BME280;51448;51.660;5.824;2023-10-19T09:46:22;99122.22;;;17.37;100.00
61119;BME280;51448;51.660;5.824;2023-10-19T09:48:53;99119.88;;;17.44;100.00
61119;BME280;51448;51.660;5.824;2023-10-19T09:51:22;99120.78;;;17.54;100.00
61119;BME280;51448;51.660;5.824;2023-10-19T09:54:07;99135.00;;;17.64;100.00
61119;BME280;51448;51.660;5.824;2023-10-19T09:56:51;99136.13;;;17.72;100.00
61119;BME280;51448;51.660;5.824;2023-10-19T09:59:33;99133.25;;;17.75;100.00
61119;BME280;51448;51.660;5.824;2023-10-19T10:02:11;99129.34;;;17.79;100.00
61119;BME280;51448;51.660;5.824;2023-10-19T10:04:42;99126.22;;;17.74;100.00
61119;BME280;51448;51.660;5.824;2023-10-19T10:07:13;99128.16;;;17.72;100.00
61119;BME280;51448;51.660;5.824;2023-10-19T10:09:58;99121.19;;;17.70;100.00
61119;BME280;51448;51.660;5.824;2023-10-19T10:12:26;99117.69;;;17.70;100.00
61119;BME280;51448;51.660;5.824;2023-10-19T10:15:03;99121.75;;;17.74;100.00
61119;BME280;51448;51.660;5.824;2023-10-19T10:17:37;99118.94;;;17.76;100.00
61119;BME280;51448;51.660;5.824;2023-10-19T10:22:45;99110.13;;;17.86;100.00
61119;BME280;51448;51.660;5.824;2023-10-19T10:25:34;99100.63;;;17.94;100.00
61119;BME280;51448;51.660;5.824;2023-10-19T10:28:03;99102.03;;;17.98;100.00
61119;BME280;51448;51.660;5.824;2023-10-19T10:30:32;99098.13;;;18.02;100.00
61119;BME280;51448;51.660;5.824;2023-10-19T10:33:00;99103.34;;;18.03;100.00
61119;BME280;51448;51.660;5.824;2023-10-19T10:38:08;99096.19;;;18.04;100.00
61119;BME280;51448;51.660;5.824;2023-10-19T10:40:46;99091.69;;;18.04;100.00
61119;BME280;51448;51.660;5.824;2023-10-19T10:43:16;99102.09;;;18.07;100.00
61119;BME280;51448;51.660;5.824;2023-10-19T10:45:44;99101.97;;;18.09;100.00
61119;BME280;51448;51.660;5.824;2023-10-19T10:48:16;99097.19;;;18.13;100.00
61119;BME280;51448;51.660;5.824;2023-10-19T10:50:46;99108.28;;;18.18;100.00
61119;BME280;51448;51.660;5.824;2023-10-19T10:53:14;99103.41;;;18.23;100.00
61119;BME280;51448;51.660;5.824;2023-10-19T10:55:45;99106.22;;;18.31;100.00
61119;BME280;51448;51.660;5.824;2023-10-19T10:58:17;99100.53;;;18.45;100.00
61119;BME280;51448;51.660;5.824;2023-10-19T11:00:46;99095.81;;;18.59;100.00
61119;BME280;51448;51.660;5.824;2023-10-19T11:03:24;99098.81;;;18.75;100.00
61119;BME280;51448;51.660;5.824;2023-10-19T11:06:07;99094.06;;;18.88;100.00
61119;BME280;51448;51.660;5.824;2023-10-19T11:08:36;99102.75;;;18.90;100.00
61119;BME280;51448;51.660;5.824;2023-10-19T11:11:09;99096.72;;;18.88;100.00
61119;BME280;51448;51.660;5.824;2023-10-19T11:13:39;99100.53;;;18.86;100.00
61119;BME280;51448;51.660;5.824;2023-10-19T11:16:07;99103.31;;;18.84;100.00
61119;BME280;51448;51.660;5.824;2023-10-19T11:18:41;99101.34;;;18.86;100.00
61119;BME280;51448;51.660;5.824;2023-10-19T11:21:13;99107.13;;;18.92;100.00
61119;BME280;51448;51.660;5.824;2023-10-19T11:23:47;99107.28;;;19.00;100.00
61119;BME280;51448;51.660;5.824;2023-10-19T11:26:19;99097.03;;;19.05;100.00
61119;BME280;51448;51.660;5.824;2023-10-19T11:28:57;99099.56;;;19.06;100.00
61119;BME280;51448;51.660;5.824;2023-10-19T11:31:26;99083.16;;;19.11;100.00
61119;BME280;51448;51.660;5.824;2023-10-19T11:33:55;99079.91;;;19.17;100.00
61119;BME280;51448;51.660;5.824;2023-10-19T11:36:22;99071.34;;;19.23;100.00
61119;BME280;51448;51.660;5.824;2023-10-19T11:38:52;99062.25;;;19.16;100.00
61119;BME280;51448;51.660;5.824;2023-10-19T11:41:21;99074.75;;;19.06;100.00
61119;BME280;51448;51.660;5.824;2023-10-19T11:43:50;99075.56;;;18.97;100.00
61119;BME280;51448;51.660;5.824;2023-10-19T11:46:18;99073.47;;;18.90;100.00
61119;BME280;51448;51.660;5.824;2023-10-19T11:48:45;99069.25;;;18.88;100.00
61119;BME280;51448;51.660;5.824;2023-10-19T11:51:14;99059.59;;;18.87;100.00
61119;BME280;51448;51.660;5.824;2023-10-19T11:53:42;99061.41;;;18.86;100.00
61119;BME280;51448;51.660;5.824;2023-10-19T11:56:11;99055.94;;;18.88;100.00
61119;BME280;51448;51.660;5.824;2023-10-19T11:58:43;99051.44;;;18.88;100.00
61119;BME280;51448;51.660;5.824;2023-10-19T12:01:15;99062.09;;;18.88;100.00
61119;BME280;51448;51.660;5.824;2023-10-19T12:03:44;99056.78;;;18.88;100.00
61119;BME280;51448;51.660;5.824;2023-10-19T12:06:16;99041.78;;;18.87;100.00
61119;BME280;51448;51.660;5.824;2023-10-19T12:08:47;99049.78;;;18.87;100.00
61119;BME280;51448;51.660;5.824;2023-10-19T12:11:15;99047.38;;;18.84;100.00
61119;BME280;51448;51.660;5.824;2023-10-19T12:13:44;99042.34;;;18.81;100.00
61119;BME280;51448;51.660;5.824;2023-10-19T12:16:12;99045.97;;;18.80;100.00
61119;BME280;51448;51.660;5.824;2023-10-19T12:18:44;99036.72;;;18.75;100.00
61119;BME280;51448;51.660;5.824;2023-10-19T12:21:12;99030.81;;;18.71;100.00
61119;BME280;51448;51.660;5.824;2023-10-19T12:23:41;99039.22;;;18.66;100.00
61119;BME280;51448;51.660;5.824;2023-10-19T12:26:11;99035.28;;;18.61;100.00
61119;BME280;51448;51.660;5.824;2023-10-19T12:28:40;99044.78;;;18.54;100.00
61119;BME280;51448;51.660;5.824;2023-10-19T12:31:08;99045.50;;;18.46;100.00
61119;BME280;51448;51.660;5.824;2023-10-19T12:33:37;99050.50;;;18.39;100.00
61119;BME280;51448;51.660;5.824;2023-10-19T12:36:06;99039.69;;;18.31;100.00
61119;BME280;51448;51.660;5.824;2023-10-19T12:39:03;99032.44;;;18.23;100.00
61119;BME280;51448;51.660;5.824;2023-10-19T12:41:37;99028.59;;;18.16;100.00
61119;BME280;51448;51.660;5.824;2023-10-19T12:44:04;99025.38;;;18.13;100.00
61119;BME280;51448;51.660;5.824;2023-10-19T12:46:39;99022.28;;;18.07;100.00
61119;BME280;51448;51.660;5.824;2023-10-19T12:49:08;99026.91;;;18.05;100.00
61119;BME280;51448;51.660;5.824;2023-10-19T12:51:41;99021.84;;;18.02;100.00
61119;BME280;51448;51.660;5.824;2023-10-19T12:54:11;99018.47;;;18.00;100.00
61119;BME280;51448;51.660;5.824;2023-10-19T12:56:40;99017.75;;;17.98;100.00
61119;BME280;51448;51.660;5.824;2023-10-19T12:59:08;99020.56;;;17.97;100.00
61119;BME280;51448;51.660;5.824;2023-10-19T13:01:36;99011.72;;;17.96;100.00
61119;BME280;51448;51.660;5.824;2023-10-19T13:04:04;99009.22;;;17.95;100.00
61119;BME280;51448;51.660;5.824;2023-10-19T13:06:45;99003.06;;;17.94;100.00
61119;BME280;51448;51.660;5.824;2023-10-19T13:09:14;99006.28;;;17.98;100.00
61119;BME280;51448;51.660;5.824;2023-10-19T13:11:49;98992.16;;;17.97;100.00
61119;BME280;51448;51.660;5.824;2023-10-19T13:14:19;98994.81;;;17.97;100.00